Flight Track Log - Related Links

Times and Time Zones

All times are in EDT time to prevent confusion due to time zone crossing. See the UAL3741 flight status page for this flight to view local times or setup timezone preferences in your user account.

Time Position Orientation Groundspeed Altitude Reporting Facility
EDT Latitude Longitude Course Direction KTS MPH feet Rate Location/Type
Thu 07:33:34 AM 29.5464 -98.4922 North 146 168 1,600  Level Houston Center
Thu 07:34:17 AM 29.5650 -98.5231 305° West 158 182 2,600 1,385 Climbing Houston Center
Thu 07:35:18 AM 29.6203 -98.5219 North 206 237 4,000 1,574 Climbing Houston Center
Thu 07:36:00 AM 29.8832 -98.4209 North  Level FlightAware Approximate
Thu 07:36:19 AM 29.6903 -98.5042 12° North 254 292 5,800  Level Houston Center
Thu 07:37:00 AM 29.9998 -98.4019 11° North  Level FlightAware Approximate
Thu 07:37:20 AM 29.7650 -98.4839 13° North 273 314 8,300  Level Houston Center
Thu 07:38:00 AM 30.1161 -98.3833 North  Level FlightAware Approximate
Thu 07:38:21 AM 29.8389 -98.4647 13° North 288 331 10,500  Level Houston Center
Thu 07:39:22 AM 29.9158 -98.4439 13° North 297 342 11,200 1,426 Climbing Houston Center
Thu 07:40:23 AM 30.0172 -98.4169 13° North 334 384 13,400 1,366 Climbing Houston Center
Thu 07:41:25 AM 30.1111 -98.3914 13° North 341 392 14,000 927 Climbing Houston Center
Thu 07:42:26 AM 30.2111 -98.3764 North 360 414 15,300 1,131 Climbing Houston Center
Thu 07:43:27 AM 30.3019 -98.3633 North 366 421 16,300 1,377 Climbing Houston Center
Thu 07:44:28 AM 30.4081 -98.3500 North 376 433 18,100 1,328 Climbing Houston Center
Thu 07:45:29 AM 30.5131 -98.3344 North 376 433 19,000 885 Climbing Houston Center
Thu 07:46:30 AM 30.6231 -98.3175 North 388 447 19,900 1,328 Climbing Houston Center
Thu 07:47:31 AM 30.7378 -98.3003 North 404 465 21,700 1,623 Climbing Houston Center
Thu 07:48:32 AM 30.8481 -98.2842 North 397 457 23,200 1,279 Climbing Houston Center
Thu 07:49:33 AM 30.9592 -98.2678 North 396 456 24,300 1,131 Climbing Houston Center
Thu 07:50:34 AM 31.0919 -98.2483 North 404 465 25,500 976 Climbing Houston Center
Thu 07:51:36 AM 31.2075 -98.2306 North 409 471 26,300 780 Climbing Houston Center
Thu 07:52:37 AM 31.3264 -98.2125 North 421 484 27,100 787 Climbing Houston Center
Thu 07:53:38 AM 31.4447 -98.1936 North 424 488 27,900 738 Climbing Houston Center
Thu 07:54:39 AM 31.5664 -98.1767 North 431 496 28,600 545 Climbing Houston Center
Thu 07:55:39 AM 31.6811 -98.1214 22° Northeast 428 493 29,000 600 Climbing Fort Worth Center
Thu 07:56:39 AM 31.7858 -98.0439 32° Northeast 433 498 29,800 700 Climbing Fort Worth Center
Thu 07:57:39 AM 31.8822 -97.9664 34° Northeast 450 518 30,400 700 Climbing Fort Worth Center
Thu 07:58:39 AM 31.9869 -97.8861 33° Northeast 461 531 31,200 850 Climbing Fort Worth Center
Thu 07:59:39 AM 32.1042 -97.7936 34° Northeast 456 525 32,100 750 Climbing Fort Worth Center
Thu 08:00:39 AM 32.2089 -97.7131 33° Northeast 456 525 32,700 750 Climbing Fort Worth Center
Thu 08:01:39 AM 32.3156 -97.6297 33° Northeast 456 525 33,600 750 Climbing Fort Worth Center
Thu 08:02:39 AM 32.4219 -97.5464 33° Northeast 456 525 34,200 700 Climbing Fort Worth Center
Thu 08:03:39 AM 32.5264 -97.4628 34° Northeast 457 526 35,000 400 Climbing Fort Worth Center
Thu 08:04:39 AM 32.6331 -97.3789 34° Northeast 457 526 35,000  Level Fort Worth Center
Thu 08:05:39 AM 32.7436 -97.2925 33° Northeast 463 533 35,000  Level Fort Worth Center
Thu 08:06:39 AM 32.8542 -97.2056 33° Northeast 463 533 35,000  Level Fort Worth Center
Thu 08:07:39 AM 32.9644 -97.1286 30° Northeast 463 533 35,000  Level Fort Worth Center
Thu 08:08:39 AM 33.0769 -97.0489 31° Northeast 458 527 35,000  Level Fort Worth Center
Thu 08:09:39 AM 33.1894 -96.9717 30° Northeast 463 533 35,000  Level Fort Worth Center
Thu 08:10:39 AM 33.3061 -96.8939 29° Northeast 468 539 35,000  Level Fort Worth Center
Thu 08:11:39 AM 33.4081 -96.8211 31° Northeast 473 544 35,000  Level Fort Worth Center
Thu 08:12:39 AM 33.5308 -96.7331 31° Northeast 468 539 35,000  Level Fort Worth Center
Thu 08:13:39 AM 33.6431 -96.6525 31° Northeast 468 539 35,000  Level Fort Worth Center
Thu 08:14:39 AM 33.7553 -96.5742 30° Northeast 468 539 35,000  Level Fort Worth Center
Thu 08:15:39 AM 33.8653 -96.4956 31° Northeast 461 531 35,000  Level Fort Worth Center
Thu 08:16:39 AM 33.9794 -96.4142 31° Northeast 461 531 35,000  Level Fort Worth Center
Thu 08:17:39 AM 34.0894 -96.3325 32° Northeast 466 536 35,000  Level Fort Worth Center
Thu 08:18:39 AM 34.2014 -96.2533 30° Northeast 466 536 35,000  Level Fort Worth Center
Thu 08:19:39 AM 34.3133 -96.1739 30° Northeast 466 536 35,000  Level Fort Worth Center
Thu 08:20:39 AM 34.4231 -96.0944 31° Northeast 466 536 35,000  Level Fort Worth Center
Thu 08:21:39 AM 34.5389 -96.0069 32° Northeast 466 536 35,000  Level Fort Worth Center
Thu 08:22:39 AM 34.6508 -95.9267 31° Northeast 466 536 35,000  Level Fort Worth Center
Thu 08:23:39 AM 34.7625 -95.8439 31° Northeast 466 536 35,000  Level Fort Worth Center
Thu 08:24:39 AM 34.8717 -95.7558 33° Northeast 466 536 35,000  Level Fort Worth Center
Thu 08:25:39 AM 34.9603 -95.6578 42° Northeast 466 536 35,000  Level Fort Worth Center
Thu 08:26:39 AM 35.0525 -95.5494 44° Northeast 466 536 35,000  Level Fort Worth Center
Thu 08:27:39 AM 35.1406 -95.4433 45° Northeast 455 524 35,000  Level Fort Worth Center
Thu 08:28:32 AM 35.2311 -95.3419 42° Northeast 451 519 35,000  Level Memphis Center
Thu 08:29:32 AM 35.3122 -95.2450 44° Northeast 445 512 35,000  Level Memphis Center
Thu 08:30:32 AM 35.4017 -95.1381 44° Northeast 450 518 35,000  Level Memphis Center
Thu 08:31:32 AM 35.4933 -95.0311 44° Northeast 450 518 35,000  Level Memphis Center
Thu 08:32:32 AM 35.5828 -94.9239 44° Northeast 450 518 35,000  Level Memphis Center
Thu 08:33:32 AM 35.6744 -94.8139 44° Northeast 450 518 35,000  Level Memphis Center
Thu 08:34:32 AM 35.7658 -94.7064 44° Northeast 450 518 35,000  Level Memphis Center
Thu 08:35:32 AM 35.8553 -94.5958 45° Northeast 450 518 35,000  Level Memphis Center
Thu 08:36:32 AM 35.9422 -94.4900 45° Northeast 450 518 35,000  Level Memphis Center
Thu 08:38:38 AM 36.1364 -94.2558 44° Northeast 453 521 35,000  Level Kansas City Center
Thu 08:39:40 AM 36.2286 -94.1444 44° Northeast 459 528 35,000  Level Kansas City Center
Thu 08:40:41 AM 36.3372 -94.0572 33° Northeast 464 534 35,000  Level Kansas City Center
Thu 08:41:42 AM 36.4542 -93.9767 29° Northeast 478 550 35,000  Level Kansas City Center
Thu 08:42:44 AM 36.5681 -93.8964 30° Northeast 472 543 35,000  Level Kansas City Center
Thu 08:43:45 AM 36.6825 -93.8158 29° Northeast 472 543 35,000  Level Kansas City Center
Thu 08:44:46 AM 36.8294 -93.7628 16° North 461 531 35,000  Level Kansas City Center
Thu 08:45:48 AM 36.9492 -93.8017 345° North 443 510 35,000  Level Kansas City Center
Thu 08:46:49 AM 37.0675 -93.8475 343° North 445 512 35,000  Level Kansas City Center
Thu 08:47:51 AM 37.1858 -93.8936 343° North 448 516 35,000  Level Kansas City Center
Thu 08:48:52 AM 37.3053 -93.9386 343° North 448 516 35,000  Level Kansas City Center
Thu 08:49:53 AM 37.4269 -93.9825 344° North 448 516 35,000  Level Kansas City Center
Thu 08:50:54 AM 37.5481 -94.0253 344° North 449 517 35,000  Level Kansas City Center
Thu 08:51:56 AM 37.6689 -94.0706 343° North 449 517 35,000  Level Kansas City Center
Thu 08:52:57 AM 37.7956 -94.0733 359° North 458 527 35,000  Level Kansas City Center
Thu 08:53:59 AM 37.9103 -93.9967 28° Northeast 476 548 35,000  Level Kansas City Center
Thu 08:55:00 AM 37.9950 -93.8711 49° Northeast 471 542 35,000  Level Kansas City Center
Thu 08:56:02 AM 38.0944 -93.7153 51° Northeast 470 541 35,000  Level Kansas City Center
Thu 08:57:03 AM 38.1789 -93.5828 51° Northeast 475 547 35,000  Level Kansas City Center
Thu 08:58:04 AM 38.2639 -93.4492 51° Northeast 480 552 35,000  Level Kansas City Center
Thu 08:59:05 AM 38.3483 -93.3172 51° Northeast 478 550 35,000  Level Kansas City Center
Thu 09:00:07 AM 38.4319 -93.1833 51° Northeast 479 551 35,000  Level Kansas City Center
Thu 09:01:08 AM 38.5156 -93.0500 51° Northeast 478 550 35,000  Level Kansas City Center
Thu 09:02:09 AM 38.5994 -92.9164 51° Northeast 478 550 35,000  Level Kansas City Center
Thu 09:03:11 AM 38.6831 -92.7808 52° Northeast 479 551 35,000  Level Kansas City Center
Thu 09:04:12 AM 38.7672 -92.6447 52° Northeast 483 556 35,000 -49 Level Kansas City Center
Thu 09:05:13 AM 38.8494 -92.5103 52° Northeast 479 551 34,900 -780 Descending Kansas City Center
Thu 09:06:15 AM 38.9331 -92.3750 52° Northeast 479 551 33,400 -927 Descending Kansas City Center
Thu 09:07:16 AM 39.0158 -92.2392 52° Northeast 479 551 33,000 -197 Descending Kansas City Center
Thu 09:08:17 AM 39.0975 -92.1061 52° Northeast 474 545 33,000  Level Kansas City Center
Thu 09:09:19 AM 39.1778 -91.9703 53° Northeast 473 544 33,000  Level Kansas City Center
Thu 09:10:20 AM 39.2642 -91.8303 51° Northeast 471 542 33,000  Level Kansas City Center
Thu 09:11:21 AM 39.3450 -91.6953 52° Northeast 474 545 33,000  Level Kansas City Center
Thu 09:12:23 AM 39.4264 -91.5597 52° Northeast 475 547 33,000  Level Kansas City Center
Thu 09:13:24 AM 39.5189 -91.4031 53° Northeast 471 542 33,000  Level Kansas City Center
Thu 09:14:25 AM 39.5858 -91.2911 52° Northeast 471 542 33,000  Level Kansas City Center
Thu 09:15:27 AM 39.6811 -91.1297 52° Northeast 470 541 33,000  Level Kansas City Center
Thu 09:16:28 AM 39.7667 -91.0222 44° Northeast 463 533 33,000  Level Kansas City Center
Thu 09:17:29 AM 39.8647 -90.9256 37° Northeast 464 534 33,000  Level Kansas City Center
Thu 09:18:31 AM 39.9669 -90.8231 38° Northeast 464 534 33,000  Level Kansas City Center
Thu 09:19:32 AM 40.0892 -90.6972 38° Northeast 464 534 33,000  Level Kansas City Center
Thu 09:20:33 AM 40.1911 -90.5944 38° Northeast 463 533 33,000  Level Kansas City Center
Thu 09:20:53 AM 40.2117 -90.5728 39° Northeast 464 534 33,000  Level Chicago Center
Thu 09:21:55 AM 40.3139 -90.4694 38° Northeast 464 534 33,000  Level Chicago Center
Thu 09:22:57 AM 40.4358 -90.3444 38° Northeast 463 533 33,000  Level Chicago Center
Thu 09:23:58 AM 40.5383 -90.2383 38° Northeast 466 536 33,000  Level Chicago Center
Thu 09:25:00 AM 40.6475 -90.1269 38° Northeast 465 535 33,000  Level Chicago Center
Thu 09:26:02 AM 40.7506 -90.0219 38° Northeast 470 541 33,000  Level Chicago Center
Thu 09:27:04 AM 40.8522 -89.9144 39° Northeast 470 541 33,000 -1,306 Level Chicago Center
Thu 09:28:06 AM 40.9497 -89.8081 39° Northeast 459 528 30,300 -2,903 Descending Chicago Center
Thu 09:29:08 AM 41.0553 -89.7006 38° Northeast 461 531 27,000 -3,000 Descending Chicago Center
Thu 09:30:10 AM 41.1508 -89.5983 39° Northeast 442 509 24,100 -1,452 Descending Chicago Center
Thu 09:31:12 AM 41.2125 -89.4608 59° Northeast 432 497 24,000 -1,113 Descending Chicago Center
Thu 09:32:14 AM 41.2719 -89.3150 61° Northeast 445 512 21,800 -2,516 Descending Chicago Center
Thu 09:33:16 AM 41.3369 -89.1525 62° Northeast 432 497 18,800 -2,661 Descending Chicago Center
Thu 09:34:18 AM 41.3911 -89.0178 62° Northeast 416 479 16,300 -2,565 Descending Chicago Center
Thu 09:35:20 AM 41.4433 -88.8881 62° Northeast 400 460 13,500 -1,887 Descending Chicago Center
Thu 09:36:22 AM 41.4856 -88.7797 62° Northeast 341 392 12,400 -1,220 Descending Chicago Center
Thu 09:37:23 AM 41.5344 -88.6619 61° Northeast 307 353 11,000 -683 Descending Chicago Center
Thu 09:38:25 AM 41.5753 -88.5633 61° Northeast 304 350 11,000 -532 Level Chicago Center
Thu 09:39:27 AM 41.6164 -88.4678 60° Northeast 299 344 9,900 -1,258 Descending Chicago Center
Thu 09:40:29 AM 41.6531 -88.3708 63° Northeast 294 338 8,400 -1,355 Descending Chicago Center
Thu 09:41:31 AM 41.6889 -88.2758 63° Northeast 287 330 7,100 -774 Descending Chicago Center
Thu 09:42:33 AM 41.7228 -88.1906 62° Northeast 265 305 6,800 -629 Descending Chicago Center
Thu 09:43:35 AM 41.7594 -88.1303 51° Northeast 226 260 5,800 -1,113 Descending Chicago Center
Thu 09:44:37 AM 41.8075 -88.0697 43° Northeast 208 239 4,500 -1,258 Descending Chicago Center

Login

Don't have an account? Register now (free) for customized features, flight alerts, and more!